Time;durP1;ratioP1;P1;durP2;ratioP2;P2;SDS_P1;SDS_P2;PMS_P1;PMS_P2;Temp;Humidity;BMP_temperature;BMP_pressure;BME280_temperature;BME280_humidity;BME280_pressure;Samples;Min_cycle;Max_cycle;Signal;HPM_P1;HPM_P2
2022/12/15 00:39:58;;;;;;;19.93;10.43;;;-7.30;99.90;;;;;;5076479;28;20168;-93
2022/12/15 00:42:27;;;;;;;18.07;9.97;;;-7.30;99.90;;;;;;5075020;28;20167;-91
2022/12/15 00:44:54;;;;;;;18.53;10.20;;;-7.30;99.90;;;;;;5074750;28;20218;-93
2022/12/15 00:47:19;;;;;;;18.77;10.30;;;-7.30;99.90;;;;;;5075176;28;20178;-93
2022/12/15 01:20:20;;;;;;;20.53;10.47;;;-7.40;99.90;;;;;;5075503;28;20165;-93
2022/12/15 01:22:51;;;;;;;17.00;9.77;;;-7.40;99.90;;;;;;5074180;28;20338;-92
2022/12/15 01:25:19;;;;;;;20.60;10.77;;;-7.40;99.90;;;;;;5074238;28;20201;-92
2022/12/15 01:27:47;;;;;;;19.57;10.00;;;-7.40;99.90;;;;;;5074105;28;20173;-93
2022/12/15 01:30:17;;;;;;;19.50;10.50;;;-7.40;99.90;;;;;;5074120;28;20170;-92
2022/12/15 01:32:42;;;;;;;19.07;10.10;;;-7.30;99.90;;;;;;5063610;28;20189;-92
2022/12/15 01:35:10;;;;;;;22.03;10.43;;;-7.30;99.90;;;;;;5057089;28;20177;-92
2022/12/15 01:37:37;;;;;;;18.57;9.97;;;-7.40;99.90;;;;;;5057320;28;20177;-94
2022/12/15 01:42:49;;;;;;;16.77;9.33;;;-7.40;99.90;;;;;;5075269;28;20290;-93
2022/12/15 01:45:27;;;;;;;22.90;9.63;;;-7.50;99.90;;;;;;5057023;28;20547;-93
2022/12/15 01:48:03;;;;;;;15.40;9.20;;;-7.40;99.90;;;;;;5056942;28;20173;-92
2022/12/15 01:50:33;;;;;;;16.80;8.37;;;-7.40;99.90;;;;;;5057287;28;20177;-90
2022/12/15 01:52:59;;;;;;;19.33;9.23;;;-7.50;99.90;;;;;;5057154;28;20188;-92
2022/12/15 01:55:28;;;;;;;17.20;9.07;;;-7.50;99.90;;;;;;5058165;28;20225;-90
2022/12/15 01:58:11;;;;;;;17.10;8.43;;;-7.50;99.90;;;;;;5058293;28;20582;-91
2022/12/15 02:00:37;;;;;;;15.33;8.80;;;-7.50;99.90;;;;;;5057264;28;20169;-92
2022/12/15 02:03:06;;;;;;;15.23;8.40;;;-7.60;99.90;;;;;;5053496;28;20220;-92
2022/12/15 02:05:34;;;;;;;15.83;9.10;;;-7.60;99.90;;;;;;5053466;28;20490;-92
2022/12/15 02:08:02;;;;;;;17.63;8.87;;;-7.60;99.90;;;;;;5053693;28;20182;-91
2022/12/15 02:10:53;;;;;;;16.90;9.90;;;-7.70;99.90;;;;;;5053832;28;20655;-91
2022/12/15 02:13:39;;;;;;;15.50;8.33;;;-7.70;99.90;;;;;;5053753;28;20174;-91
2022/12/15 02:16:14;;;;;;;14.87;8.60;;;-7.80;99.90;;;;;;5053614;28;20171;-92
2022/12/15 02:19:08;;;;;;;16.40;7.80;;;-7.80;99.90;;;;;;5053533;28;20528;-93
2022/12/15 02:21:45;;;;;;;16.77;8.40;;;-7.80;99.90;;;;;;5017511;28;20235;-92
2022/12/15 02:24:42;;;;;;;15.37;8.23;;;-7.70;99.90;;;;;;5057084;28;20201;-92
2022/12/15 02:27:33;;;;;;;15.70;8.30;;;-7.70;99.90;;;;;;5057101;28;20576;-92
2022/12/15 02:30:20;;;;;;;16.97;8.27;;;-7.60;99.90;;;;;;5057356;28;20184;-92
2022/12/15 02:33:10;;;;;;;14.33;7.97;;;-7.50;99.90;;;;;;5070720;28;20346;-92
2022/12/15 02:36:20;;;;;;;12.57;7.77;;;-7.40;99.90;;;;;;5076991;28;20201;-92
2022/12/15 02:38:54;;;;;;;17.33;9.13;;;-7.40;99.90;;;;;;4997058;28;20238;-93
2022/12/15 02:41:36;;;;;;;15.47;8.77;;;-7.40;99.90;;;;;;4980769;28;20509;-92
2022/12/15 02:44:20;;;;;;;14.43;8.30;;;-7.40;99.90;;;;;;5040101;28;20556;-92
2022/12/15 02:47:10;;;;;;;15.90;8.27;;;-7.40;99.90;;;;;;5076951;28;20189;-92
2022/12/15 02:50:17;;;;;;;16.63;8.13;;;-7.30;99.90;;;;;;5076666;28;20602;-92
2022/12/15 02:53:01;;;;;;;14.30;8.00;;;-7.30;99.90;;;;;;5076669;28;20179;-92
2022/12/15 02:55:33;;;;;;;16.27;8.33;;;-7.30;99.90;;;;;;5076375;28;20223;-92
2022/12/15 02:57:59;;;;;;;18.53;8.40;;;-7.20;99.90;;;;;;5076302;28;20276;-93
2022/12/15 03:00:26;;;;;;;14.97;7.93;;;-7.20;99.90;;;;;;5076611;28;20270;-92
2022/12/15 03:02:54;;;;;;;16.30;8.50;;;-7.10;99.90;;;;;;5075818;28;20737;-90
2022/12/15 03:05:21;;;;;;;16.97;9.07;;;-7.10;99.90;;;;;;5076401;28;20192;-91
2022/12/15 03:07:53;;;;;;;16.60;8.17;;;-7.10;99.90;;;;;;5076490;28;20174;-92
2022/12/15 03:10:22;;;;;;;16.60;8.80;;;-7.10;99.90;;;;;;5076528;28;20184;-92
2022/12/15 03:12:49;;;;;;;18.87;8.63;;;-7.00;99.90;;;;;;5076438;28;20252;-92
2022/12/15 03:15:15;;;;;;;15.60;8.60;;;-7.00;99.90;;;;;;5077554;28;20173;-92
2022/12/15 03:17:41;;;;;;;20.20;10.10;;;-7.00;99.90;;;;;;5075785;28;20188;-92
2022/12/15 03:20:07;;;;;;;16.13;8.90;;;-7.00;99.90;;;;;;5076284;28;20177;-92
2022/12/15 03:22:34;;;;;;;16.60;8.20;;;-7.00;99.90;;;;;;5076145;28;20208;-92
2022/12/15 03:25:00;;;;;;;17.03;9.30;;;-7.00;99.90;;;;;;5076220;28;20268;-92
2022/12/15 03:27:26;;;;;;;14.23;8.13;;;-7.00;99.90;;;;;;5075823;28;20193;-93
2022/12/15 03:29:52;;;;;;;16.27;8.87;;;-7.00;99.90;;;;;;5075475;28;20615;-91
2022/12/15 03:32:17;;;;;;;15.13;8.37;;;-7.00;99.90;;;;;;5075506;28;20716;-92
2022/12/15 03:34:44;;;;;;;14.07;7.60;;;-7.00;99.90;;;;;;5075590;28;20181;-91
2022/12/15 03:37:10;;;;;;;17.13;8.47;;;-7.00;99.90;;;;;;5075834;28;20181;-92
2022/12/15 03:39:41;;;;;;;15.47;8.50;;;-6.90;99.90;;;;;;5076119;28;20500;-92
2022/12/15 03:42:06;;;;;;;14.60;8.23;;;-7.00;99.90;;;;;;5077161;28;20604;-92
2022/12/15 03:44:32;;;;;;;15.20;7.87;;;-7.00;99.90;;;;;;5075528;28;20270;-92
2022/12/15 03:46:58;;;;;;;15.70;8.50;;;-6.90;99.90;;;;;;5076165;28;20269;-92
2022/12/15 03:49:27;;;;;;;18.60;8.00;;;-7.00;99.90;;;;;;5075530;28;20215;-92
2022/12/15 03:51:53;;;;;;;16.73;7.67;;;-7.00;99.90;;;;;;5075918;28;20174;-92
2022/12/15 03:54:19;;;;;;;15.57;8.03;;;-7.00;99.90;;;;;;5075334;28;20501;-92
2022/12/15 03:56:45;;;;;;;17.77;8.70;;;-7.00;99.90;;;;;;5075880;28;20327;-89
2022/12/15 03:59:11;;;;;;;16.17;8.50;;;-7.00;99.90;;;;;;5077813;28;20177;-92
2022/12/15 04:01:43;;;;;;;15.93;8.17;;;-7.00;99.90;;;;;;5074829;28;20209;-92
2022/12/15 04:04:09;;;;;;;16.87;8.37;;;-7.10;99.90;;;;;;5058297;28;20206;-91
2022/12/15 04:06:35;;;;;;;13.73;7.53;;;-7.10;99.90;;;;;;5058531;28;20181;-92
2022/12/15 04:09:04;;;;;;;18.70;8.63;;;-7.20;99.90;;;;;;5058209;28;20246;-94
2022/12/15 04:11:29;;;;;;;13.13;7.60;;;-7.10;99.90;;;;;;5055270;28;20175;-92
2022/12/15 04:13:55;;;;;;;12.67;7.57;;;-7.00;99.90;;;;;;5055206;28;20627;-93
2022/12/15 04:16:21;;;;;;;15.60;8.40;;;-7.10;99.90;;;;;;5055230;28;20200;-93
2022/12/15 04:20:07;;;;;;;14.23;7.57;;;-7.10;99.90;;;;;;5055123;28;20638;-93
2022/12/15 04:21:39;;;;;;;16.00;8.00;;;-7.10;99.90;;;;;;5055873;28;20185;-92
2022/12/15 05:33:05;;;;;;;12.40;7.60;;;-6.20;99.90;;;;;;5075789;28;20195;-93
2022/12/15 05:35:30;;;;;;;14.53;8.03;;;-6.20;99.90;;;;;;5074059;28;20190;-92
2022/12/15 05:37:56;;;;;;;13.70;7.77;;;-6.20;99.90;;;;;;5074327;28;20551;-95
2022/12/15 05:40:25;;;;;;;19.13;8.17;;;-6.20;99.90;;;;;;5073931;28;20661;-96
2022/12/15 05:42:51;;;;;;;15.70;8.17;;;-6.20;99.90;;;;;;5073959;28;20208;-95
2022/12/15 05:45:17;;;;;;;14.60;8.00;;;-6.20;99.90;;;;;;5073972;28;20616;-94
2022/12/15 05:47:42;;;;;;;14.60;8.13;;;-6.20;99.90;;;;;;5076145;28;20188;-95
2022/12/15 05:50:09;;;;;;;15.37;8.23;;;-6.20;99.90;;;;;;5076838;28;20181;-95
2022/12/15 05:52:35;;;;;;;14.03;7.93;;;-6.20;99.90;;;;;;5074149;28;20604;-95
2022/12/15 05:55:01;;;;;;;15.70;8.13;;;-6.10;99.90;;;;;;5073123;28;20185;-95
2022/12/15 05:57:26;;;;;;;12.03;7.47;;;-6.10;99.90;;;;;;5076726;28;20508;-94
2022/12/15 05:59:55;;;;;;;14.80;8.10;;;-6.10;99.90;;;;;;5077704;28;20184;-95
2022/12/15 06:02:21;;;;;;;14.37;7.90;;;-6.10;99.90;;;;;;5077606;28;20216;-96
2022/12/15 06:04:47;;;;;;;10.93;7.23;;;-6.10;99.90;;;;;;5077680;28;20659;-96
2022/12/15 06:07:12;;;;;;;14.33;7.53;;;-6.00;99.90;;;;;;5077474;28;20225;-95
2022/12/15 06:09:38;;;;;;;15.43;8.00;;;-6.00;99.90;;;;;;5076888;28;20397;-95
2022/12/15 06:12:04;;;;;;;14.93;7.60;;;-6.00;99.90;;;;;;5077538;28;20242;-93
2022/12/15 06:14:30;;;;;;;15.57;8.70;;;-6.00;99.90;;;;;;5079189;28;20237;-91
2022/12/15 06:16:55;;;;;;;17.80;8.47;;;-6.00;99.90;;;;;;5085366;28;20199;-95
2022/12/15 06:19:21;;;;;;;16.60;8.33;;;-5.90;99.90;;;;;;5077638;28;20266;-95
2022/12/15 06:21:47;;;;;;;13.43;8.00;;;-5.90;99.90;;;;;;5078515;28;20172;-95
2022/12/15 06:24:13;;;;;;;13.60;8.67;;;-5.90;99.90;;;;;;5076840;28;20553;-96
2022/12/15 06:26:39;;;;;;;14.60;7.70;;;-5.90;99.90;;;;;;5077396;28;20180;-95
2022/12/15 06:29:07;;;;;;;13.70;7.20;;;-5.90;99.90;;;;;;5077265;28;20177;-95
2022/12/15 06:31:35;;;;;;;17.43;8.03;;;-5.90;99.90;;;;;;5077202;28;20183;-96
2022/12/15 06:34:04;;;;;;;14.83;8.53;;;-5.90;99.90;;;;;;5077239;28;20695;-95
2022/12/15 06:36:30;;;;;;;18.70;8.03;;;-5.80;99.90;;;;;;5077347;28;20201;-96
2022/12/15 06:39:01;;;;;;;12.67;7.47;;;-5.80;99.90;;;;;;5077507;28;20629;-94
2022/12/15 06:41:29;;;;;;;17.47;8.40;;;-5.70;99.90;;;;;;5077646;28;20173;-94
2022/12/15 06:43:55;;;;;;;15.63;8.57;;;-5.70;99.90;;;;;;5077074;28;20213;-94
2022/12/15 06:46:22;;;;;;;13.57;7.30;;;-5.70;99.90;;;;;;5076795;28;20170;-94
2022/12/15 06:48:48;;;;;;;14.13;7.50;;;-5.70;99.90;;;;;;5078169;28;20180;-95
2022/12/15 06:51:18;;;;;;;14.60;7.53;;;-5.70;99.90;;;;;;5076988;28;20191;-94
2022/12/15 06:53:47;;;;;;;13.60;8.10;;;-5.70;99.90;;;;;;5076782;28;20223;-95
2022/12/15 06:56:25;;;;;;;14.27;7.33;;;-5.70;99.90;;;;;;5076359;28;20238;-94
2022/12/15 06:58:51;;;;;;;15.80;7.90;;;-5.70;99.90;;;;;;5076810;28;20184;-94
2022/12/15 07:01:21;;;;;;;15.43;7.73;;;-5.70;99.90;;;;;;5075950;28;20264;-94
2022/12/15 07:03:47;;;;;;;16.17;8.17;;;-5.70;99.90;;;;;;5075468;28;20512;-94
2022/12/15 07:06:15;;;;;;;14.43;8.00;;;-5.70;99.90;;;;;;5076511;28;20180;-93
2022/12/15 07:08:42;;;;;;;16.87;8.07;;;-5.60;99.90;;;;;;5070872;28;20758;-93
2022/12/15 07:11:12;;;;;;;13.83;7.87;;;-5.60;99.90;;;;;;5056375;28;20177;-93
2022/12/15 07:13:38;;;;;;;15.57;8.00;;;-5.70;99.90;;;;;;5056346;28;20177;-93
2022/12/15 07:16:05;;;;;;;15.57;8.27;;;-5.70;99.90;;;;;;5056154;28;20579;-94
2022/12/15 07:18:32;;;;;;;13.50;7.43;;;-5.70;99.90;;;;;;5056174;28;20182;-94
2022/12/15 07:21:12;;;;;;;16.17;7.50;;;-5.70;99.90;;;;;;5056312;28;20193;-94
2022/12/15 07:23:38;;;;;;;16.07;7.90;;;-5.70;99.90;;;;;;5056227;28;20263;-93
2022/12/15 07:26:06;;;;;;;16.37;8.67;;;-5.80;99.90;;;;;;5056076;28;20186;-94
2022/12/15 07:28:33;;;;;;;13.50;7.70;;;-5.80;99.90;;;;;;5056310;28;20679;-93
2022/12/15 07:31:07;;;;;;;16.43;7.93;;;-5.80;99.90;;;;;;5056414;28;20198;-93
2022/12/15 07:33:34;;;;;;;16.47;8.50;;;-5.80;99.90;;;;;;5056552;28;20258;-94
2022/12/15 07:36:01;;;;;;;21.40;9.10;;;-5.80;99.90;;;;;;5056047;28;20528;-93
2022/12/15 07:38:28;;;;;;;17.73;8.97;;;-5.80;99.90;;;;;;5057534;28;20177;-92
2022/12/15 07:40:54;;;;;;;14.90;7.37;;;-5.80;99.90;;;;;;5075742;28;20182;-93
2022/12/15 07:43:21;;;;;;;15.20;8.43;;;-5.80;99.90;;;;;;5075610;28;20202;-93
2022/12/15 07:45:53;;;;;;;16.43;8.67;;;-5.80;99.90;;;;;;5075984;28;20183;-94
2022/12/15 07:48:20;;;;;;;22.30;8.30;;;-5.80;99.90;;;;;;5075714;28;20200;-95
2022/12/15 07:50:56;;;;;;;16.63;8.20;;;-5.70;99.90;;;;;;5075729;28;20185;-94
2022/12/15 07:53:22;;;;;;;15.43;8.80;;;-5.70;99.90;;;;;;5075595;28;20165;-94
2022/12/15 07:55:56;;;;;;;15.53;7.57;;;-5.70;99.90;;;;;;5075219;28;20230;-95
2022/12/15 07:58:21;;;;;;;15.77;8.07;;;-5.70;99.90;;;;;;5075661;28;20176;-93
2022/12/15 08:01:03;;;;;;;11.07;6.57;;;-5.70;99.90;;;;;;5076889;28;20179;-93
2022/12/15 08:03:29;;;;;;;11.70;7.00;;;-5.70;99.90;;;;;;5065627;28;20209;-93
2022/12/15 08:05:55;;;;;;;14.17;7.73;;;-5.70;99.90;;;;;;5075338;28;20627;-93
2022/12/15 08:08:23;;;;;;;12.27;7.80;;;-5.70;99.90;;;;;;5075549;28;20183;-93
2022/12/15 08:10:51;;;;;;;15.17;8.10;;;-5.60;99.90;;;;;;5075210;28;20703;-93
2022/12/15 08:13:17;;;;;;;15.00;8.13;;;-5.60;99.90;;;;;;5075536;28;20169;-93
2022/12/15 08:15:43;;;;;;;18.63;8.13;;;-5.50;99.90;;;;;;5075192;28;20178;-93
2022/12/15 08:18:08;;;;;;;17.70;8.07;;;-5.40;99.90;;;;;;5075135;28;20569;-94
2022/12/15 08:20:34;;;;;;;17.67;9.10;;;-5.40;99.90;;;;;;5074752;28;20177;-96
2022/12/15 08:23:01;;;;;;;13.17;7.63;;;-5.30;99.90;;;;;;5074917;28;20213;-95
2022/12/15 08:25:27;;;;;;;14.20;7.57;;;-5.30;99.90;;;;;;5075134;28;20215;-93
2022/12/15 08:27:54;;;;;;;15.13;8.57;;;-5.30;99.90;;;;;;5075087;28;20543;-93
2022/12/15 08:30:20;;;;;;;16.80;8.80;;;-5.20;99.90;;;;;;5076772;28;20508;-92
2022/12/15 08:32:46;;;;;;;15.40;7.97;;;-5.20;99.90;;;;;;5075270;28;20192;-92
2022/12/15 08:35:12;;;;;;;16.23;8.70;;;-5.20;99.90;;;;;;5074548;28;20190;-94
2022/12/15 08:37:38;;;;;;;15.53;9.03;;;-5.10;99.90;;;;;;5074222;28;20273;-92
2022/12/15 08:40:05;;;;;;;19.70;9.87;;;-5.00;99.90;;;;;;5075960;28;20266;-94
2022/12/15 08:42:36;;;;;;;14.20;8.17;;;-4.90;99.90;;;;;;5074669;28;20188;-93
2022/12/15 08:45:04;;;;;;;16.13;8.57;;;-4.90;99.90;;;;;;5074934;28;20300;-94
2022/12/15 08:47:29;;;;;;;16.10;8.90;;;-4.80;99.90;;;;;;5074715;28;20175;-94
2022/12/15 08:49:55;;;;;;;19.53;8.87;;;-4.70;99.90;;;;;;5074581;28;20184;-94
2022/12/15 08:52:27;;;;;;;14.50;8.47;;;-4.70;99.90;;;;;;5075598;28;20208;-94
2022/12/15 08:54:53;;;;;;;15.30;9.13;;;-4.60;99.90;;;;;;5074203;28;20183;-94
2022/12/15 08:57:19;;;;;;;14.33;8.23;;;-4.50;99.90;;;;;;5074461;28;20191;-94
2022/12/15 08:59:44;;;;;;;16.13;8.47;;;-4.40;99.90;;;;;;5074650;28;20252;-94
2022/12/15 09:02:11;;;;;;;19.50;9.23;;;-4.40;99.90;;;;;;5073505;28;20183;-94
2022/12/15 09:04:37;;;;;;;15.70;8.87;;;-4.40;99.90;;;;;;5074430;28;20246;-94
2022/12/15 09:07:03;;;;;;;16.10;9.17;;;-4.40;99.90;;;;;;5074459;28;20192;-95
2022/12/15 09:09:29;;;;;;;16.40;9.20;;;-4.30;99.90;;;;;;5074175;28;20196;-94
2022/12/15 09:11:55;;;;;;;21.40;8.80;;;-4.20;99.90;;;;;;5074013;28;20175;-95
2022/12/15 09:14:21;;;;;;;19.47;9.27;;;-4.10;99.90;;;;;;5073695;28;20248;-92
2022/12/15 09:16:46;;;;;;;24.43;9.77;;;-4.10;99.90;;;;;;5074078;28;20184;-93
2022/12/15 09:19:12;;;;;;;13.17;8.17;;;-4.00;99.90;;;;;;5074203;28;20522;-93
2022/12/15 09:21:38;;;;;;;16.00;8.53;;;-3.90;99.90;;;;;;5074338;28;20575;-92
2022/12/15 09:24:05;;;;;;;16.07;8.80;;;-3.90;99.90;;;;;;5074344;28;20220;-94
2022/12/15 09:26:32;;;;;;;15.57;8.77;;;-3.80;99.90;;;;;;5074384;28;20215;-95
2022/12/15 09:29:00;;;;;;;16.40;8.63;;;-3.70;99.90;;;;;;5076310;28;20181;-96
2022/12/15 09:31:32;;;;;;;18.40;8.60;;;-3.70;99.90;;;;;;5070917;28;20262;-94
2022/12/15 09:34:00;;;;;;;13.40;8.37;;;-3.60;99.90;;;;;;5054390;28;20214;-95
2022/12/15 09:36:27;;;;;;;15.57;8.27;;;-3.60;99.90;;;;;;5054587;28;20166;-95
2022/12/15 09:38:52;;;;;;;17.93;8.70;;;-3.50;99.90;;;;;;5055195;28;20288;-95
2022/12/15 09:41:27;;;;;;;17.40;8.57;;;-3.50;99.90;;;;;;5055703;28;20241;-94
2022/12/15 09:44:04;;;;;;;17.77;9.57;;;-3.50;99.90;;;;;;5056560;28;20209;-94
2022/12/15 09:46:56;;;;;;;13.87;8.83;;;-3.40;99.90;;;;;;5060263;28;20170;-94
2022/12/15 09:50:01;;;;;;;18.07;9.30;;;-3.30;99.90;;;;;;5048764;28;20224;-93
2022/12/15 09:52:52;;;;;;;14.33;8.90;;;-3.30;99.90;;;;;;5055663;28;20186;-95
2022/12/15 09:55:24;;;;;;;17.50;9.47;;;-3.20;99.90;;;;;;5058193;28;20213;-94
2022/12/15 09:57:54;;;;;;;13.60;8.60;;;-3.10;99.90;;;;;;5058826;28;20178;-95
2022/12/15 10:00:39;;;;;;;14.10;8.63;;;-3.10;99.90;;;;;;5059965;28;20170;-96
2022/12/15 10:03:44;;;;;;;20.87;9.60;;;-2.90;99.90;;;;;;5064717;28;20233;-96
2022/12/15 10:06:21;;;;;;;15.33;9.23;;;-2.90;99.90;;;;;;5067985;28;20182;-95
2022/12/15 10:09:19;;;;;;;17.10;9.43;;;-2.90;99.90;;;;;;5065138;28;20247;-96
2022/12/15 10:11:59;;;;;;;15.93;9.37;;;-2.80;99.90;;;;;;5064107;28;20238;-95
2022/12/15 10:14:40;;;;;;;19.37;9.60;;;-2.70;99.90;;;;;;5068810;28;20183;-94
2022/12/15 10:17:28;;;;;;;19.40;9.93;;;-2.70;99.90;;;;;;5068230;28;20711;-94
2022/12/15 10:20:19;;;;;;;15.37;8.90;;;-2.70;99.90;;;;;;5070180;28;20175;-96
2022/12/15 10:22:47;;;;;;;16.43;8.67;;;-2.70;99.90;;;;;;5066822;28;20166;-96
2022/12/15 10:25:31;;;;;;;17.87;9.90;;;-2.60;99.90;;;;;;5065083;28;20178;-96
2022/12/15 10:28:15;;;;;;;15.77;9.53;;;-2.50;99.90;;;;;;5063346;28;20621;-96
2022/12/15 10:30:55;;;;;;;14.90;9.07;;;-2.50;99.90;;;;;;5066122;28;20181;-96
2022/12/15 10:33:30;;;;;;;20.07;10.63;;;-2.50;99.90;;;;;;5066879;28;20186;-96
2022/12/15 10:35:56;;;;;;;17.67;9.50;;;-2.50;99.90;;;;;;5063236;28;20182;-95
2022/12/15 10:38:36;;;;;;;16.50;9.40;;;-2.30;99.90;;;;;;5067645;28;20192;-95
2022/12/15 10:41:11;;;;;;;19.60;10.60;;;-2.30;99.90;;;;;;5061355;28;20229;-96
2022/12/15 10:43:43;;;;;;;22.90;9.50;;;-2.20;99.90;;;;;;5066767;28;20229;-96
2022/12/15 10:46:26;;;;;;;14.50;8.70;;;-2.10;99.90;;;;;;5066789;28;20314;-95
2022/12/15 10:48:58;;;;;;;15.50;9.30;;;-2.00;99.90;;;;;;5063844;28;20175;-96
2022/12/15 10:51:41;;;;;;;16.30;8.77;;;-2.00;99.90;;;;;;5063341;28;20182;-95
2022/12/15 10:54:08;;;;;;;15.73;9.10;;;-1.90;99.90;;;;;;5067491;28;20203;-92
2022/12/15 10:56:46;;;;;;;17.47;9.63;;;-1.80;99.90;;;;;;5065815;28;20230;-95
2022/12/15 10:59:26;;;;;;;20.37;9.77;;;-1.80;99.90;;;;;;5060230;28;20186;-93
2022/12/15 11:01:52;;;;;;;17.47;9.90;;;-1.70;99.90;;;;;;5059974;28;20181;-94
2022/12/15 11:04:25;;;;;;;18.40;9.67;;;-1.70;99.90;;;;;;5058727;28;20227;-95
2022/12/15 11:06:56;;;;;;;16.70;9.23;;;-1.60;99.90;;;;;;5058697;28;20191;-95
2022/12/15 11:09:33;;;;;;;14.03;9.00;;;-1.60;99.90;;;;;;5056946;28;20224;-92
2022/12/15 11:14:49;;;;;;;23.53;10.60;;;-1.50;99.90;;;;;;5078738;28;20174;-92
2022/12/15 11:17:24;;;;;;;17.50;9.90;;;-1.40;99.90;;;;;;5076816;28;20202;-94
2022/12/15 11:20:10;;;;;;;17.30;9.57;;;-1.40;99.90;;;;;;5077473;28;20207;-94
2022/12/15 11:22:48;;;;;;;16.30;9.30;;;-1.30;99.90;;;;;;5077247;28;20183;-95
2022/12/15 11:25:25;;;;;;;15.67;10.00;;;-1.40;99.90;;;;;;5077430;28;20191;-94
2022/12/15 11:27:55;;;;;;;16.17;8.87;;;-1.30;99.90;;;;;;5076987;28;20235;-94
2022/12/15 11:30:24;;;;;;;15.80;9.20;;;-1.30;99.90;;;;;;5076612;28;20176;-95
2022/12/15 11:32:59;;;;;;;16.77;9.60;;;-1.20;99.90;;;;;;5076623;28;20257;-94
2022/12/15 11:36:00;;;;;;;17.57;10.07;;;-1.10;99.90;;;;;;5077561;28;20174;-94
2022/12/15 11:38:50;;;;;;;19.10;10.30;;;-1.10;99.90;;;;;;5076931;28;20172;-94
2022/12/15 11:41:31;;;;;;;18.33;9.70;;;-1.00;99.90;;;;;;5075648;28;20203;-93
2022/12/15 11:44:48;;;;;;;16.43;9.60;;;-0.90;99.90;;;;;;5059630;28;20216;-93
2022/12/15 11:47:24;;;;;;;17.57;9.57;;;-0.80;99.90;;;;;;5000287;28;20211;-94
2022/12/15 11:50:06;;;;;;;15.63;8.83;;;-0.70;99.90;;;;;;5077521;28;20211;-96
2022/12/15 11:53:18;;;;;;;21.30;9.90;;;-0.60;99.90;;;;;;5059592;28;20272;-94
2022/12/15 11:56:02;;;;;;;18.43;8.47;;;-0.60;99.90;;;;;;5030145;28;20284;-95
2022/12/15 11:58:38;;;;;;;15.67;8.67;;;-0.50;99.90;;;;;;5059434;28;20176;-95
2022/12/15 12:01:10;;;;;;;15.10;8.70;;;-0.60;99.90;;;;;;5060145;28;20184;-95
2022/12/15 12:04:14;;;;;;;14.23;8.47;;;-0.50;99.90;;;;;;5056309;28;20217;-95
2022/12/15 12:06:46;;;;;;;18.90;9.27;;;-0.50;99.90;;;;;;5056000;28;20624;-96
2022/12/15 12:09:27;;;;;;;15.77;8.67;;;-0.50;99.90;;;;;;5057392;28;20667;-95
2022/12/15 12:12:03;;;;;;;17.17;9.10;;;-0.50;99.90;;;;;;5058440;28;20192;-95
2022/12/15 12:14:44;;;;;;;18.90;9.37;;;-0.40;99.90;;;;;;5057932;28;20179;-96
2022/12/15 12:17:29;;;;;;;16.83;9.10;;;-0.40;99.90;;;;;;5056753;28;20615;-95
2022/12/15 12:19:59;;;;;;;15.40;9.27;;;-0.40;99.90;;;;;;5056803;28;20178;-96
2022/12/15 12:22:41;;;;;;;19.07;9.30;;;-0.20;99.90;;;;;;5056003;28;20193;-95
2022/12/15 12:25:21;;;;;;;13.43;8.23;;;-0.10;99.90;;;;;;5056178;28;20213;-96
2022/12/15 12:28:01;;;;;;;22.30;9.27;;;-0.10;99.90;;;;;;5056885;28;20327;-96
2022/12/15 12:30:39;;;;;;;13.20;8.10;;;-0.10;99.90;;;;;;5056673;28;20177;-95
2022/12/15 12:33:13;;;;;;;13.83;9.00;;;-0.10;99.90;;;;;;5056666;28;20185;-96
2022/12/15 12:35:38;;;;;;;17.37;8.93;;;0.00;99.90;;;;;;5055619;28;20998;-94
2022/12/15 12:38:08;;;;;;;14.97;7.77;;;0.00;99.90;;;;;;5038898;28;20224;-96
2022/12/15 12:40:40;;;;;;;17.20;8.77;;;-0.10;99.90;;;;;;5040076;28;20178;-95
2022/12/15 12:43:08;;;;;;;19.53;9.07;;;0.00;99.90;;;;;;5039776;28;20698;-95
2022/12/15 12:45:56;;;;;;;17.47;9.10;;;0.10;99.90;;;;;;5039449;28;20604;-94
2022/12/15 12:48:36;;;;;;;15.47;8.90;;;0.20;99.90;;;;;;5038774;28;20635;-94
2022/12/15 12:51:29;;;;;;;17.83;9.03;;;0.20;99.90;;;;;;5039069;28;20178;-95
2022/12/15 12:53:56;;;;;;;13.53;8.30;;;0.30;99.90;;;;;;5038907;28;20620;-95
2022/12/15 12:56:43;;;;;;;12.70;8.30;;;0.30;99.90;;;;;;5065503;28;20221;-95
2022/12/15 12:59:27;;;;;;;16.77;7.90;;;0.20;99.90;;;;;;5075709;28;20612;-96
2022/12/15 13:02:17;;;;;;;16.20;9.03;;;0.20;99.90;;;;;;5075728;28;20173;-95
2022/12/15 13:04:50;;;;;;;12.77;7.97;;;0.40;99.90;;;;;;5075117;28;20299;-94
2022/12/15 13:07:33;;;;;;;19.30;8.77;;;0.50;99.90;;;;;;5073282;28;20617;-95
2022/12/15 13:10:08;;;;;;;15.67;8.63;;;0.50;99.90;;;;;;5074621;28;20174;-94
2022/12/15 13:12:45;;;;;;;15.77;7.87;;;0.60;99.90;;;;;;5074252;28;20488;-95
2022/12/15 13:15:38;;;;;;;16.57;8.60;;;0.70;99.90;;;;;;5075622;28;20208;-95
2022/12/15 13:18:06;;;;;;;15.57;8.40;;;0.80;99.90;;;;;;5031984;28;20181;-95
2022/12/15 13:20:36;;;;;;;14.00;7.80;;;0.80;99.90;;;;;;5078178;28;20173;-94
2022/12/15 13:23:20;;;;;;;17.43;8.30;;;0.90;99.90;;;;;;5074188;28;20234;-96
2022/12/15 13:26:10;;;;;;;12.93;7.53;;;0.70;99.90;;;;;;5075299;28;20185;-93
2022/12/15 13:28:38;;;;;;;16.13;8.43;;;0.70;99.90;;;;;;5061718;28;20187;-92
2022/12/15 13:31:22;;;;;;;14.60;7.97;;;0.70;99.90;;;;;;5053723;28;20643;-93
2022/12/15 13:33:54;;;;;;;17.20;8.57;;;0.60;99.90;;;;;;5054477;28;20208;-95
2022/12/15 13:36:38;;;;;;;17.87;8.60;;;0.70;99.90;;;;;;5055578;28;20170;-95
2022/12/15 13:39:24;;;;;;;14.80;8.23;;;0.60;99.90;;;;;;5055047;28;20216;-93
2022/12/15 13:41:52;;;;;;;17.93;8.00;;;0.40;99.90;;;;;;5055656;28;20182;-93
2022/12/15 13:44:26;;;;;;;14.27;7.37;;;0.40;99.90;;;;;;5054192;28;20332;-95
2022/12/15 13:46:54;;;;;;;11.47;7.27;;;0.40;99.90;;;;;;5054282;28;20281;-95
2022/12/15 13:49:45;;;;;;;16.03;8.07;;;0.50;99.90;;;;;;5054633;28;20171;-94
2022/12/15 13:52:49;;;;;;;14.40;7.93;;;0.50;99.90;;;;;;5053139;28;20273;-92
2022/12/15 13:55:33;;;;;;;11.00;7.57;;;0.50;99.90;;;;;;5051609;28;20205;-94
2022/12/15 13:58:16;;;;;;;14.27;8.00;;;0.50;99.90;;;;;;5024196;28;20193;-92
2022/12/15 14:00:55;;;;;;;12.77;7.67;;;0.40;99.90;;;;;;5036951;28;20182;-94
2022/12/15 14:03:24;;;;;;;18.50;8.37;;;0.40;99.90;;;;;;5036916;28;20553;-95
2022/12/15 14:06:14;;;;;;;13.07;7.43;;;0.40;99.90;;;;;;5037281;28;20742;-94
2022/12/15 14:08:40;;;;;;;12.80;7.70;;;0.30;99.90;;;;;;5036962;28;20524;-95
2022/12/15 14:11:21;;;;;;;15.90;8.03;;;0.30;99.90;;;;;;5036738;28;20492;-95
2022/12/15 14:13:47;;;;;;;12.83;7.33;;;0.30;99.90;;;;;;5036663;28;20178;-95
2022/12/15 14:16:17;;;;;;;16.73;7.87;;;0.20;99.90;;;;;;5036587;28;20536;-93
2022/12/15 14:18:43;;;;;;;13.87;7.60;;;0.10;99.90;;;;;;5040100;28;20174;-95
2022/12/15 14:21:25;;;;;;;12.50;7.43;;;0.10;99.90;;;;;;5040688;28;20624;-95
2022/12/15 14:23:51;;;;;;;11.83;6.83;;;0.00;99.90;;;;;;5040798;28;20220;-95
2022/12/15 14:26:17;;;;;;;12.27;7.20;;;-0.10;99.90;;;;;;5040864;28;20205;-93
2022/12/15 14:28:46;;;;;;;17.17;8.10;;;-0.10;99.90;;;;;;5041071;28;20712;-94
2022/12/15 14:31:23;;;;;;;11.93;7.50;;;-0.20;99.90;;;;;;5058369;28;20173;-94
2022/12/15 14:33:59;;;;;;;12.67;7.90;;;-0.30;99.90;;;;;;5040439;28;20188;-94
2022/12/15 14:36:26;;;;;;;12.50;7.43;;;-0.30;99.90;;;;;;5041146;28;20273;-94
2022/12/15 14:39:13;;;;;;;14.37;8.00;;;-0.40;99.90;;;;;;5040566;28;20174;-94
2022/12/15 14:41:44;;;;;;;10.93;6.83;;;-0.60;99.90;;;;;;5040208;28;20253;-93
2022/12/15 14:44:28;;;;;;;19.90;7.77;;;-0.60;99.90;;;;;;5040290;28;20661;-95
2022/12/15 14:46:55;;;;;;;13.23;7.30;;;-0.70;99.90;;;;;;5040538;28;20173;-95
2022/12/15 14:49:28;;;;;;;13.23;7.03;;;-0.80;99.90;;;;;;5040636;28;20206;-94
2022/12/15 14:52:04;;;;;;;10.40;6.80;;;-0.90;99.90;;;;;;5040826;28;20216;-94
2022/12/15 14:54:48;;;;;;;15.87;8.30;;;-1.00;99.90;;;;;;5041456;28;20600;-95
2022/12/15 14:57:43;;;;;;;15.03;7.67;;;-1.00;99.90;;;;;;5069532;28;20245;-95
2022/12/15 15:00:26;;;;;;;13.27;7.73;;;-1.10;99.90;;;;;;5078233;28;20592;-95
2022/12/15 15:03:13;;;;;;;14.70;7.53;;;-1.20;99.90;;;;;;5077840;28;20204;-95
2022/12/15 15:05:43;;;;;;;14.30;7.40;;;-1.30;99.90;;;;;;5079519;28;20189;-94
2022/12/15 15:08:26;;;;;;;14.73;7.50;;;-1.30;99.90;;;;;;5078776;28;20175;-95
2022/12/15 15:10:54;;;;;;;12.17;6.93;;;-1.30;99.90;;;;;;5077849;28;20180;-94
2022/12/15 15:13:25;;;;;;;13.10;7.63;;;-1.30;99.90;;;;;;5077870;28;20177;-96
2022/12/15 15:15:58;;;;;;;17.40;7.53;;;-1.30;99.90;;;;;;5078360;28;20275;-94
2022/12/15 15:18:26;;;;;;;15.33;7.53;;;-1.40;99.90;;;;;;5078201;28;20174;-95
2022/12/15 15:21:05;;;;;;;11.73;7.33;;;-1.50;99.90;;;;;;5078680;28;20276;-95
2022/12/15 15:23:32;;;;;;;13.67;7.33;;;-1.60;99.90;;;;;;5078060;28;20291;-95
2022/12/15 15:26:09;;;;;;;10.60;7.20;;;-1.70;99.90;;;;;;5078181;28;20205;-96
2022/12/15 15:28:40;;;;;;;12.77;7.50;;;-1.70;99.90;;;;;;5077147;28;20176;-96
2022/12/15 15:31:26;;;;;;;10.47;6.77;;;-1.80;99.90;;;;;;5077297;28;20177;-95
2022/12/15 15:33:56;;;;;;;13.87;7.57;;;-1.80;99.90;;;;;;5078260;28;20173;-95